Time;durP1;ratioP1;P1;durP2;ratioP2;P2;SDS_P1;SDS_P2;PMS_P1;PMS_P2;Temp;Humidity;BMP_temperature;BMP_pressure;BME280_temperature;BME280_humidity;BME280_pressure;Samples;Min_cycle;Max_cycle;Signal;HPM_P1;HPM_P2
2021/03/17 00:02:46;;;;;;;35.70;22.70;;;;;;;1.24;76.32;99346.14;511019;1100;114200;-59
2021/03/17 00:12:52;;;;;;;38.87;23.80;;;;;;;1.17;75.83;99342.02;510868;1102;114964;-60
2021/03/17 00:22:55;;;;;;;43.77;26.03;;;;;;;1.04;76.74;99342.38;510863;1101;114134;-61
2021/03/17 00:33:00;;;;;;;45.53;26.23;;;;;;;0.82;76.72;99337.82;510790;1102;114203;-61
2021/03/17 00:43:04;;;;;;;40.87;25.07;;;;;;;0.74;78.11;99329.42;510663;1100;114964;-60
2021/03/17 00:53:11;;;;;;;52.53;30.05;;;;;;;0.71;77.49;99323.52;510359;1102;115015;-61
2021/03/17 01:03:14;;;;;;;49.57;29.43;;;;;;;0.64;78.06;99339.17;510957;1102;115157;-61
2021/03/17 01:13:17;;;;;;;48.40;29.25;;;;;;;0.59;77.97;99335.02;512953;1101;114698;-60
2021/03/17 01:23:21;;;;;;;48.60;30.10;;;;;;;0.59;76.93;99337.61;510519;1101;114360;-62
2021/03/17 01:33:27;;;;;;;46.50;27.80;;;;;;;0.43;77.72;99332.86;510809;1101;114208;-61
2021/03/17 01:43:30;;;;;;;53.00;28.77;;;;;;;0.46;77.60;99334.49;511108;1102;115069;-61
2021/03/17 01:53:36;;;;;;;46.60;27.57;;;;;;;0.47;78.53;99346.55;510641;1101;114432;-61
2021/03/17 02:03:39;;;;;;;44.83;27.17;;;;;;;0.44;77.42;99337.14;511232;1100;114078;-63
2021/03/17 02:13:57;;;;;;;43.33;26.27;;;;;;;0.40;78.19;99338.95;511262;1102;114107;-59
2021/03/17 02:24:13;;;;;;;45.07;24.03;;;;;;;0.36;78.83;99342.52;511288;1100;114089;-62
2021/03/17 02:34:19;;;;;;;43.27;24.23;;;;;;;0.26;77.91;99344.46;511243;1100;114500;-60
2021/03/17 02:44:25;;;;;;;43.40;22.73;;;;;;;0.22;77.68;99350.60;510866;1102;115224;-60
2021/03/17 02:54:29;;;;;;;39.08;22.52;;;;;;;0.10;78.37;99353.50;510939;1101;115905;-61
2021/03/17 03:04:33;;;;;;;41.40;23.30;;;;;;;-0.05;78.22;99352.14;510992;1101;114281;-63
2021/03/17 03:14:40;;;;;;;42.60;24.13;;;;;;;-0.09;78.19;99348.77;510831;1100;114466;-60
2021/03/17 03:24:43;;;;;;;35.95;21.48;;;;;;;-0.12;78.59;99366.92;511183;1102;114971;-62
2021/03/17 03:34:46;;;;;;;41.95;22.95;;;;;;;-0.13;79.40;99374.69;511220;1102;115978;-60
2021/03/17 03:44:51;;;;;;;37.17;22.40;;;;;;;-0.05;79.33;99375.36;511585;1101;114809;-62
2021/03/17 03:55:01;;;;;;;50.57;24.40;;;;;;;0.01;78.91;99389.86;511151;1102;114807;-60
2021/03/17 04:05:09;;;;;;;42.13;23.60;;;;;;;-0.05;78.85;99383.97;511323;1100;114896;-60
2021/03/17 04:15:16;;;;;;;38.53;22.27;;;;;;;-0.10;78.73;99387.55;511357;1101;114374;-60
2021/03/17 04:25:21;;;;;;;33.43;19.70;;;;;;;-0.21;78.72;99388.64;511273;1102;114920;-60
2021/03/17 04:35:26;;;;;;;32.03;19.00;;;;;;;-0.31;79.66;99393.14;511127;1102;114784;-62
2021/03/17 04:45:30;;;;;;;39.03;21.00;;;;;;;-0.37;79.47;99398.45;511170;1100;114395;-60
2021/03/17 04:55:33;;;;;;;34.43;20.67;;;;;;;-0.50;79.50;99405.61;511292;1101;115665;-61
2021/03/17 05:05:39;;;;;;;31.30;18.87;;;;;;;-0.53;80.07;99409.98;511265;1101;114769;-60
2021/03/17 05:15:45;;;;;;;29.80;17.63;;;;;;;-0.64;79.49;99416.20;511249;1102;115237;-60
2021/03/17 05:25:49;;;;;;;40.90;23.13;;;;;;;-0.80;80.03;99440.62;511322;1101;115216;-63
2021/03/17 05:35:54;;;;;;;29.33;15.90;;;;;;;-0.98;79.97;99445.27;511061;1100;114746;-60
2021/03/17 05:45:58;;;;;;;27.20;16.35;;;;;;;-0.99;80.86;99448.70;511308;1102;115183;-60
2021/03/17 05:56:02;;;;;;;21.27;13.93;;;;;;;-1.20;81.03;99463.70;511280;1102;114589;-58
2021/03/17 06:06:07;;;;;;;23.80;13.80;;;;;;;-1.23;80.89;99473.20;511106;1100;115237;-61
2021/03/17 06:16:14;;;;;;;22.20;10.43;;;;;;;-1.02;81.37;99469.38;510914;1102;114300;-61
2021/03/17 06:26:20;;;;;;;20.33;13.57;;;;;;;-0.83;81.43;99481.94;510914;1102;114349;-60
2021/03/17 06:36:25;;;;;;;22.27;13.87;;;;;;;-0.58;80.57;99492.61;511633;1100;114718;-61
2021/03/17 06:46:32;;;;;;;19.23;12.37;;;;;;;-0.44;81.23;99498.36;511226;1102;114542;-60
2021/03/17 06:56:43;;;;;;;20.97;13.30;;;;;;;-0.21;79.68;99501.33;510907;1102;115054;-62
2021/03/17 07:06:59;;;;;;;23.00;12.10;;;;;;;0.06;79.58;99507.63;510592;1100;115233;-61
2021/03/17 07:17:21;;;;;;;16.67;9.53;;;;;;;0.21;79.50;99521.08;510887;1100;114136;-63
2021/03/17 07:27:27;;;;;;;15.83;9.87;;;;;;;0.46;78.44;99512.75;511077;1102;114751;-61
2021/03/17 07:37:31;;;;;;;12.97;8.67;;;;;;;0.61;78.73;99517.58;511520;1102;115621;-61
2021/03/17 07:47:34;;;;;;;15.20;9.40;;;;;;;0.71;78.13;99519.94;511047;1102;114947;-62
2021/03/17 07:57:43;;;;;;;11.60;7.53;;;;;;;0.82;77.99;99523.11;510685;1101;113942;-59
2021/03/17 08:07:48;;;;;;;12.63;6.13;;;;;;;1.19;76.55;99513.53;510947;1102;114736;-59
2021/03/17 08:17:52;;;;;;;10.90;7.40;;;;;;;1.41;76.00;99529.34;511071;1101;113940;-65
2021/03/17 08:28:16;;;;;;;13.40;8.83;;;;;;;1.62;75.95;99525.30;501939;1102;10002009;-58
2021/03/17 08:38:22;;;;;;;9.27;6.90;;;;;;;2.22;75.07;99514.08;510265;1102;114650;-62
2021/03/17 08:48:56;;;;;;;10.53;6.53;;;;;;;2.14;74.25;99522.09;510238;1101;113756;-62
2021/03/17 08:59:19;;;;;;;8.25;5.25;;;;;;;2.12;73.54;99528.20;510468;1102;114453;-61
2021/03/17 09:09:26;;;;;;;6.60;5.30;;;;;;;2.03;73.68;99537.11;510112;1102;114000;-60
2021/03/17 09:19:50;;;;;;;8.20;4.55;;;;;;;2.59;73.26;99536.23;510611;1102;114732;-60
2021/03/17 09:29:54;;;;;;;7.63;4.00;;;;;;;4.15;70.62;99539.48;510944;1102;113932;-62
2021/03/17 09:39:57;;;;;;;11.15;6.90;;;;;;;3.92;70.44;99537.73;511069;1102;114315;-62
2021/03/17 09:50:16;;;;;;;6.23;4.80;;;;;;;3.92;69.92;99535.14;510704;1102;114063;-62
2021/03/17 10:00:25;;;;;;;8.77;5.93;;;;;;;3.59;69.95;99544.13;510699;1102;114572;-63
2021/03/17 10:10:31;;;;;;;8.30;5.57;;;;;;;3.67;69.04;99543.01;510605;1102;114090;-64
2021/03/17 10:20:34;;;;;;;7.40;4.70;;;;;;;3.88;68.12;99543.96;510788;1100;114608;-65
2021/03/17 10:30:40;;;;;;;8.60;7.43;;;;;;;3.61;67.90;99542.31;510746;1102;115362;-64
2021/03/17 10:40:46;;;;;;;10.13;5.03;;;;;;;3.52;68.52;99547.86;510742;1100;114896;-62
2021/03/17 10:50:55;;;;;;;6.53;4.17;;;;;;;3.68;66.78;99540.34;510864;1102;115441;-60
2021/03/17 11:01:01;;;;;;;5.55;3.85;;;;;;;3.66;67.33;99533.53;510984;1102;114349;-60
2021/03/17 11:11:06;;;;;;;7.53;4.57;;;;;;;3.91;66.79;99538.64;511073;1101;114472;-61
2021/03/17 11:21:17;;;;;;;8.03;4.60;;;;;;;4.37;65.92;99529.98;511171;1101;113772;-60
2021/03/17 11:31:28;;;;;;;6.33;4.97;;;;;;;4.05;65.08;99531.20;510728;1101;115542;-61
2021/03/17 11:41:33;;;;;;;10.70;7.27;;;;;;;3.96;66.44;99534.14;511073;1102;113785;-61
2021/03/17 11:51:37;;;;;;;14.27;10.33;;;;;;;3.91;66.23;99536.05;511040;1100;114635;-65
2021/03/17 12:01:40;;;;;;;9.03;7.17;;;;;;;3.78;66.36;99535.67;511069;1100;114264;-63
2021/03/17 12:11:44;;;;;;;18.57;11.77;;;;;;;3.88;66.36;99544.83;510882;1101;114670;-60
2021/03/17 12:21:49;;;;;;;9.27;6.93;;;;;;;3.82;65.94;99536.41;510970;1102;114248;-61
2021/03/17 12:31:55;;;;;;;9.40;6.55;;;;;;;4.09;66.21;99536.27;510927;1100;113863;-62
2021/03/17 12:41:59;;;;;;;12.15;7.05;;;;;;;4.67;64.86;99534.88;510899;1100;113753;-60
2021/03/17 12:52:02;;;;;;;6.57;5.00;;;;;;;5.11;65.15;99533.94;511000;1102;113951;-58
2021/03/17 13:02:07;;;;;;;6.13;4.90;;;;;;;5.26;63.21;99533.30;510917;1102;113814;-62
2021/03/17 13:12:11;;;;;;;6.43;5.13;;;;;;;5.03;63.32;99539.47;510753;1102;113804;-62
2021/03/17 13:22:15;;;;;;;6.77;5.37;;;;;;;4.57;64.27;99548.25;512467;1100;113765;-61
2021/03/17 13:32:19;;;;;;;9.03;5.20;;;;;;;4.43;63.67;99550.56;511035;1101;114264;-62
2021/03/17 13:42:22;;;;;;;10.93;5.60;;;;;;;4.08;63.69;99545.80;511033;1101;114644;-60
2021/03/17 13:52:26;;;;;;;7.28;4.30;;;;;;;4.12;64.26;99562.99;511165;1102;114480;-61
2021/03/17 14:02:32;;;;;;;7.17;4.53;;;;;;;3.97;63.98;99561.81;511203;1102;113763;-62
2021/03/17 14:12:39;;;;;;;6.75;4.92;;;;;;;3.82;63.92;99560.63;510720;1101;114823;-61
2021/03/17 14:22:42;;;;;;;6.03;3.87;;;;;;;3.80;63.67;99562.44;510760;1102;113918;-62
2021/03/17 14:32:48;;;;;;;6.47;4.47;;;;;;;3.78;63.84;99559.05;511192;1102;113895;-61
2021/03/17 14:43:07;;;;;;;7.57;4.60;;;;;;;3.54;63.25;99564.22;511126;1101;113723;-61
2021/03/17 14:53:11;;;;;;;5.15;3.65;;;;;;;3.34;64.10;99573.55;510973;1102;114192;-62
2021/03/17 15:03:18;;;;;;;7.83;3.57;;;;;;;3.25;63.77;99575.63;511051;1102;113948;-61
2021/03/17 15:13:22;;;;;;;5.50;4.25;;;;;;;3.21;63.98;99593.87;511078;1102;114735;-62
2021/03/17 15:23:26;;;;;;;6.73;3.77;;;;;;;3.18;64.01;99600.94;510993;1102;114252;-63
2021/03/17 15:33:32;;;;;;;6.13;3.40;;;;;;;3.14;64.17;99605.37;511114;1102;113823;-61
2021/03/17 15:43:36;;;;;;;6.30;3.35;;;;;;;3.14;63.76;99607.97;510890;1102;113814;-61
2021/03/17 15:53:40;;;;;;;5.55;3.60;;;;;;;3.04;64.29;99622.14;510957;1102;113786;-61
2021/03/17 16:03:44;;;;;;;5.20;3.60;;;;;;;2.92;64.71;99626.82;511281;1102;114023;-61
2021/03/17 16:13:49;;;;;;;7.90;4.80;;;;;;;2.84;64.97;99648.72;511291;1102;113973;-60
2021/03/17 16:23:53;;;;;;;6.37;4.43;;;;;;;2.79;64.33;99657.47;511419;1102;114242;-63
2021/03/17 16:33:56;;;;;;;6.27;2.80;;;;;;;2.71;64.48;99659.44;510918;1102;114084;-56
2021/03/17 16:44:04;;;;;;;4.20;2.93;;;;;;;2.65;64.57;99681.25;511523;1100;113789;-62
2021/03/17 16:54:08;;;;;;;5.53;3.60;;;;;;;2.59;64.70;99680.55;510806;1102;114414;-61
2021/03/17 17:04:19;;;;;;;6.50;3.93;;;;;;;2.54;64.63;99695.41;510725;1101;113779;-60
2021/03/17 17:14:23;;;;;;;10.87;5.03;;;;;;;2.50;64.37;99705.02;511036;1102;113931;-63
2021/03/17 17:24:33;;;;;;;;;;;;;;;2.44;64.54;99708.62;510969;1102;114356;-63
2021/03/17 17:34:40;;;;;;;7.57;4.20;;;;;;;2.36;64.17;99716.63;510866;1102;100246;-67
2021/03/17 17:44:44;;;;;;;8.53;6.37;;;;;;;2.31;65.00;99722.83;510815;1101;114071;-59
2021/03/17 17:54:48;;;;;;;13.03;7.03;;;;;;;2.24;64.77;99728.17;511233;1102;113833;-64
2021/03/17 18:05:01;;;;;;;8.63;4.97;;;;;;;2.20;64.72;99743.87;511597;1102;114206;-64
2021/03/17 18:15:12;;;;;;;10.53;5.20;;;;;;;2.17;64.55;99749.11;502519;1102;10001437;-66
2021/03/17 18:25:16;;;;;;;9.23;5.70;;;;;;;2.15;64.52;99748.30;510114;1100;114706;-67
2021/03/17 18:35:26;;;;;;;13.17;8.13;;;;;;;2.12;64.65;99753.58;510217;1101;114708;-65
2021/03/17 18:45:30;;;;;;;10.93;5.70;;;;;;;2.07;64.86;99751.94;510732;1102;114467;-63
2021/03/17 18:55:42;;;;;;;6.87;4.93;;;;;;;2.04;64.95;99757.20;510471;1101;114396;-65
2021/03/17 19:06:07;;;;;;;10.80;5.87;;;;;;;1.99;65.46;99773.76;510639;1101;113993;-66
2021/03/17 19:16:11;;;;;;;9.40;5.50;;;;;;;1.94;65.57;99771.28;510677;1101;114125;-65
2021/03/17 19:26:15;;;;;;;11.67;5.80;;;;;;;1.89;65.81;99776.58;510623;1102;114386;-62
2021/03/17 19:36:20;;;;;;;12.87;6.27;;;;;;;1.84;66.20;99777.58;510683;1102;113983;-61
2021/03/17 19:46:24;;;;;;;11.77;5.87;;;;;;;1.78;66.13;99787.22;511007;1102;114457;-66
2021/03/17 19:56:30;;;;;;;9.60;5.00;;;;;;;1.73;66.45;99789.08;510892;1100;113924;-68
2021/03/17 20:06:38;;;;;;;10.60;6.03;;;;;;;1.68;66.13;99802.13;510893;1102;113938;-64
2021/03/17 20:16:46;;;;;;;9.08;5.20;;;;;;;1.61;66.70;99803.16;511167;1102;114385;-64
2021/03/17 20:26:50;;;;;;;9.57;5.40;;;;;;;1.55;67.27;99803.29;510911;1102;113800;-64
2021/03/17 20:36:54;;;;;;;9.50;5.65;;;;;;;1.50;66.70;99802.56;511158;1102;114450;-62
2021/03/17 20:46:58;;;;;;;7.53;4.90;;;;;;;1.48;66.88;99806.92;513056;1102;113773;-74
2021/03/17 20:57:05;;;;;;;9.50;4.83;;;;;;;1.41;66.33;99806.22;513373;1100;114030;-74
2021/03/17 21:07:09;;;;;;;9.07;5.00;;;;;;;1.36;66.52;99806.32;513404;1102;114150;-75
2021/03/17 21:17:14;;;;;;;7.83;5.57;;;;;;;1.28;66.69;99813.39;512959;1101;115303;-73
2021/03/17 21:27:19;;;;;;;9.63;5.83;;;;;;;1.19;66.61;99813.59;513289;1100;114084;-74
2021/03/17 21:37:29;;;;;;;6.90;4.50;;;;;;;1.10;66.39;99814.64;513418;1102;114199;-74
2021/03/17 21:47:37;;;;;;;9.07;5.17;;;;;;;1.02;66.15;99813.95;513186;1102;114106;-75
2021/03/17 21:57:45;;;;;;;8.73;5.43;;;;;;;0.94;67.01;99807.22;513038;1102;113960;-74
2021/03/17 22:07:52;;;;;;;8.18;4.62;;;;;;;0.83;66.57;99809.17;512981;1101;114455;-74
2021/03/17 22:18:00;;;;;;;8.90;5.03;;;;;;;0.72;65.80;99806.79;512823;1101;115021;-74
2021/03/17 22:28:10;;;;;;;7.30;4.17;;;;;;;0.50;66.62;99808.95;512798;1102;115160;-73
2021/03/17 22:38:25;;;;;;;7.27;4.80;;;;;;;0.10;65.67;99797.63;512577;1101;113818;-75
2021/03/17 22:48:30;;;;;;;12.28;6.25;;;;;;;-0.26;67.42;99802.53;512833;1102;114286;-74
2021/03/17 22:58:35;;;;;;;9.27;4.67;;;;;;;-0.59;67.76;99815.91;512522;1102;114040;-74
2021/03/17 23:08:42;;;;;;;8.07;5.07;;;;;;;-0.85;67.70;99814.55;504209;1100;10001919;-71
2021/03/17 23:18:50;;;;;;;10.67;6.03;;;;;;;-1.00;68.98;99825.91;516933;1100;114573;-72
2021/03/17 23:29:01;;;;;;;8.67;4.87;;;;;;;-1.19;68.40;99825.29;512158;1101;114184;-71
2021/03/17 23:39:18;;;;;;;13.83;6.40;;;;;;;-1.38;69.16;99835.83;513318;1102;115414;-70
2021/03/17 23:49:22;;;;;;;13.60;6.80;;;;;;;-1.62;69.38;99826.63;510825;1100;114936;-64
2021/03/17 23:59:25;;;;;;;9.43;5.00;;;;;;;-1.78;69.95;99838.80;510653;1102;115514;-65
